sensor_id;sensor_type;location;lat;lon;timestamp;pressure;altitude;pressure_sealevel;temperature;humidity
30302;BME280;17111;52.130;5.028;2023-09-18T00:00:19;100702.22;;;24.03;53.82
30302;BME280;17111;52.130;5.028;2023-09-18T00:02:48;100694.09;;;24.03;53.90
30302;BME280;17111;52.130;5.028;2023-09-18T00:05:15;100681.63;;;24.02;53.80
30302;BME280;17111;52.130;5.028;2023-09-18T00:07:42;100674.53;;;24.01;54.01
30302;BME280;17111;52.130;5.028;2023-09-18T00:10:10;100670.16;;;24.00;53.54
30302;BME280;17111;52.130;5.028;2023-09-18T00:12:38;100664.75;;;24.00;53.67
30302;BME280;17111;52.130;5.028;2023-09-18T00:15:06;100666.59;;;24.00;53.73
30302;BME280;17111;52.130;5.028;2023-09-18T00:17:35;100656.63;;;24.00;53.66
30302;BME280;17111;52.130;5.028;2023-09-18T00:20:03;100656.63;;;24.00;53.87
30302;BME280;17111;52.130;5.028;2023-09-18T00:22:33;100655.75;;;24.00;53.57
30302;BME280;17111;52.130;5.028;2023-09-18T00:25:00;100646.81;;;23.99;53.62
30302;BME280;17111;52.130;5.028;2023-09-18T00:27:28;100644.09;;;23.99;53.47
30302;BME280;17111;52.130;5.028;2023-09-18T00:29:55;100644.09;;;23.99;53.62
30302;BME280;17111;52.130;5.028;2023-09-18T00:32:21;100637.84;;;23.99;53.88
30302;BME280;17111;52.130;5.028;2023-09-18T00:34:48;100627.00;;;23.99;53.57
30302;BME280;17111;52.130;5.028;2023-09-18T00:37:15;100627.00;;;23.99;53.46
30302;BME280;17111;52.130;5.028;2023-09-18T00:39:43;100624.53;;;23.97;53.28
30302;BME280;17111;52.130;5.028;2023-09-18T00:42:10;100620.78;;;23.98;53.15
30302;BME280;17111;52.130;5.028;2023-09-18T00:44:40;100619.94;;;23.98;53.24
30302;BME280;17111;52.130;5.028;2023-09-18T00:47:08;100612.84;;;23.97;53.38
30302;BME280;17111;52.130;5.028;2023-09-18T00:49:36;100597.44;;;23.97;53.00
30302;BME280;17111;52.130;5.028;2023-09-18T00:52:05;100593.91;;;23.97;53.74
30302;BME280;17111;52.130;5.028;2023-09-18T00:54:34;100585.78;;;23.97;53.21
30302;BME280;17111;52.130;5.028;2023-09-18T00:57:01;100583.09;;;23.97;53.65
30302;BME280;17111;52.130;5.028;2023-09-18T00:59:29;100574.97;;;23.97;53.58
30302;BME280;17111;52.130;5.028;2023-09-18T01:01:55;100558.91;;;23.95;52.83
30302;BME280;17111;52.130;5.028;2023-09-18T01:04:22;100561.59;;;23.95;53.39
30302;BME280;17111;52.130;5.028;2023-09-18T01:06:53;100546.19;;;23.96;53.58
30302;BME280;17111;52.130;5.028;2023-09-18T01:09:20;100543.47;;;23.96;53.78
30302;BME280;17111;52.130;5.028;2023-09-18T01:14:33;100529.13;;;23.95;53.60
30302;BME280;17111;52.130;5.028;2023-09-18T01:17:04;100522.88;;;23.95;53.62
30302;BME280;17111;52.130;5.028;2023-09-18T01:22:04;100511.44;;;23.93;53.46
30302;BME280;17111;52.130;5.028;2023-09-18T01:24:35;100516.63;;;23.94;53.34
30302;BME280;17111;52.130;5.028;2023-09-18T01:27:03;100511.22;;;23.94;53.31
30302;BME280;17111;52.130;5.028;2023-09-18T01:29:33;100510.38;;;23.94;53.20
30302;BME280;17111;52.130;5.028;2023-09-18T01:32:00;100509.53;;;23.93;53.38
30302;BME280;17111;52.130;5.028;2023-09-18T01:34:47;100510.59;;;23.92;53.10
30302;BME280;17111;52.130;5.028;2023-09-18T01:37:16;100514.97;;;23.93;53.54
30302;BME280;17111;52.130;5.028;2023-09-18T01:39:44;100517.66;;;23.93;53.01
30302;BME280;17111;52.130;5.028;2023-09-18T01:42:12;100519.53;;;23.93;53.06
30302;BME280;17111;52.130;5.028;2023-09-18T01:44:39;100520.38;;;23.93;53.60
30302;BME280;17111;52.130;5.028;2023-09-18T01:47:07;100507.88;;;23.92;53.59
30302;BME280;17111;52.130;5.028;2023-09-18T01:49:36;100486.22;;;23.92;53.49
30302;BME280;17111;52.130;5.028;2023-09-18T01:52:04;100487.06;;;23.93;52.99
30302;BME280;17111;52.130;5.028;2023-09-18T01:54:31;100485.38;;;23.92;52.87
30302;BME280;17111;52.130;5.028;2023-09-18T01:56:59;100486.22;;;23.92;53.52
30302;BME280;17111;52.130;5.028;2023-09-18T01:59:25;100489.78;;;23.93;53.24
30302;BME280;17111;52.130;5.028;2023-09-18T02:01:53;100486.22;;;23.92;53.24
30302;BME280;17111;52.130;5.028;2023-09-18T02:04:22;100498.91;;;23.92;53.19
30302;BME280;17111;52.130;5.028;2023-09-18T02:07:09;100506.00;;;23.93;53.28
30302;BME280;17111;52.130;5.028;2023-09-18T02:09:36;100506.19;;;23.91;53.41
30302;BME280;17111;52.130;5.028;2023-09-18T02:12:03;100511.59;;;23.91;52.83
30302;BME280;17111;52.130;5.028;2023-09-18T02:14:30;100508.91;;;23.91;53.06
30302;BME280;17111;52.130;5.028;2023-09-18T02:16:57;100523.25;;;23.92;53.07
30302;BME280;17111;52.130;5.028;2023-09-18T02:19:24;100515.13;;;23.92;53.30
30302;BME280;17111;52.130;5.028;2023-09-18T02:21:54;100509.72;;;23.92;52.84
30302;BME280;17111;52.130;5.028;2023-09-18T02:24:22;100508.91;;;23.91;53.23
30302;BME280;17111;52.130;5.028;2023-09-18T02:26:50;100498.06;;;23.91;53.47
30302;BME280;17111;52.130;5.028;2023-09-18T02:29:16;100495.38;;;23.91;52.88
30302;BME280;17111;52.130;5.028;2023-09-18T02:31:43;100502.47;;;23.92;53.03
30302;BME280;17111;52.130;5.028;2023-09-18T02:34:10;100488.28;;;23.90;52.94
30302;BME280;17111;52.130;5.028;2023-09-18T02:36:36;100482.88;;;23.90;53.22
30302;BME280;17111;52.130;5.028;2023-09-18T02:39:03;100487.25;;;23.91;53.46
30302;BME280;17111;52.130;5.028;2023-09-18T02:41:30;100489.13;;;23.91;53.54
30302;BME280;17111;52.130;5.028;2023-09-18T02:43:57;100483.69;;;23.91;53.59
30302;BME280;17111;52.130;5.028;2023-09-18T02:46:23;100466.63;;;23.90;52.75
30302;BME280;17111;52.130;5.028;2023-09-18T02:48:50;100453.94;;;23.91;53.07
30302;BME280;17111;52.130;5.028;2023-09-18T02:51:17;100443.94;;;23.91;52.89
30302;BME280;17111;52.130;5.028;2023-09-18T02:53:44;100439.56;;;23.90;52.80
30302;BME280;17111;52.130;5.028;2023-09-18T02:56:10;100427.91;;;23.89;53.04
30302;BME280;17111;52.130;5.028;2023-09-18T02:58:37;100417.91;;;23.90;53.31
30302;BME280;17111;52.130;5.028;2023-09-18T03:01:04;100407.09;;;23.90;53.26
30302;BME280;17111;52.130;5.028;2023-09-18T03:03:33;100400.84;;;23.89;52.78
30302;BME280;17111;52.130;5.028;2023-09-18T03:06:01;100387.31;;;23.89;52.82
30302;BME280;17111;52.130;5.028;2023-09-18T03:08:28;100378.13;;;23.91;53.44
30302;BME280;17111;52.130;5.028;2023-09-18T03:10:55;100373.78;;;23.89;52.82
30302;BME280;17111;52.130;5.028;2023-09-18T03:13:22;100375.66;;;23.89;52.95
30302;BME280;17111;52.130;5.028;2023-09-18T03:15:49;100388.13;;;23.90;53.09
30302;BME280;17111;52.130;5.028;2023-09-18T03:18:16;100390.00;;;23.89;52.80
30302;BME280;17111;52.130;5.028;2023-09-18T03:20:42;100383.75;;;23.89;53.09
30302;BME280;17111;52.130;5.028;2023-09-18T03:23:09;100382.94;;;23.88;53.25
30302;BME280;17111;52.130;5.028;2023-09-18T03:25:36;100365.66;;;23.89;53.27
30302;BME280;17111;52.130;5.028;2023-09-18T03:28:16;100364.81;;;23.89;52.91
30302;BME280;17111;52.130;5.028;2023-09-18T03:30:43;100382.94;;;23.88;52.60
30302;BME280;17111;52.130;5.028;2023-09-18T03:33:10;100397.47;;;23.87;52.68
30302;BME280;17111;52.130;5.028;2023-09-18T03:35:50;100392.94;;;23.88;52.51
30302;BME280;17111;52.130;5.028;2023-09-18T03:38:17;100391.25;;;23.87;53.12
30302;BME280;17111;52.130;5.028;2023-09-18T03:40:44;100395.63;;;23.88;52.99
30302;BME280;17111;52.130;5.028;2023-09-18T03:43:11;100380.41;;;23.87;53.03
30302;BME280;17111;52.130;5.028;2023-09-18T03:45:39;100390.41;;;23.86;52.95
30302;BME280;17111;52.130;5.028;2023-09-18T03:48:10;100385.81;;;23.87;52.55
30302;BME280;17111;52.130;5.028;2023-09-18T03:50:37;100400.41;;;23.86;52.63
30302;BME280;17111;52.130;5.028;2023-09-18T03:53:05;100401.22;;;23.86;52.84
30302;BME280;17111;52.130;5.028;2023-09-18T03:55:32;100395.81;;;23.86;53.08
30302;BME280;17111;52.130;5.028;2023-09-18T03:57:59;100384.16;;;23.86;52.85
30302;BME280;17111;52.130;5.028;2023-09-18T04:00:26;100389.56;;;23.86;52.67
30302;BME280;17111;52.130;5.028;2023-09-18T04:02:53;100389.56;;;23.86;52.56
30302;BME280;17111;52.130;5.028;2023-09-18T04:05:20;100395.00;;;23.86;52.84
30302;BME280;17111;52.130;5.028;2023-09-18T04:07:47;100402.28;;;23.85;52.76
30302;BME280;17111;52.130;5.028;2023-09-18T04:10:14;100407.88;;;23.84;53.28
30302;BME280;17111;52.130;5.028;2023-09-18T04:12:50;100409.56;;;23.85;52.65
30302;BME280;17111;52.130;5.028;2023-09-18T04:15:18;100412.66;;;23.82;53.40
30302;BME280;17111;52.130;5.028;2023-09-18T04:17:45;100317.31;;;23.80;53.21
30302;BME280;17111;52.130;5.028;2023-09-18T04:20:12;100338.34;;;23.78;53.54
30302;BME280;17111;52.130;5.028;2023-09-18T04:22:44;100364.13;;;23.74;53.19
30302;BME280;17111;52.130;5.028;2023-09-18T04:25:12;100362.47;;;23.73;53.58
30302;BME280;17111;52.130;5.028;2023-09-18T04:27:38;100367.25;;;23.71;53.99
30302;BME280;17111;52.130;5.028;2023-09-18T04:30:06;100352.88;;;23.70;53.62
30302;BME280;17111;52.130;5.028;2023-09-18T04:32:36;100342.28;;;23.69;53.88
30302;BME280;17111;52.130;5.028;2023-09-18T04:35:04;100327.69;;;23.70;53.85
30302;BME280;17111;52.130;5.028;2023-09-18T04:37:36;100331.44;;;23.69;53.41
30302;BME280;17111;52.130;5.028;2023-09-18T04:40:05;100321.47;;;23.69;53.54
30302;BME280;17111;52.130;5.028;2023-09-18T04:42:38;100305.22;;;23.69;53.89
30302;BME280;17111;52.130;5.028;2023-09-18T04:45:06;100300.66;;;23.70;54.00
30302;BME280;17111;52.130;5.028;2023-09-18T04:47:33;100297.94;;;23.70;53.47
30302;BME280;17111;52.130;5.028;2023-09-18T04:50:00;100283.34;;;23.71;53.58
30302;BME280;17111;52.130;5.028;2023-09-18T04:52:27;100271.72;;;23.70;53.49
30302;BME280;17111;52.130;5.028;2023-09-18T04:54:54;100269.84;;;23.71;53.47
30302;BME280;17111;52.130;5.028;2023-09-18T04:57:21;100260.88;;;23.70;53.24
30302;BME280;17111;52.130;5.028;2023-09-18T04:59:49;100267.94;;;23.71;53.60
30302;BME280;17111;52.130;5.028;2023-09-18T05:02:35;100258.81;;;23.72;53.32
30302;BME280;17111;52.130;5.028;2023-09-18T05:05:03;100264.22;;;23.72;53.16
30302;BME280;17111;52.130;5.028;2023-09-18T05:07:30;100267.94;;;23.71;53.42
30302;BME280;17111;52.130;5.028;2023-09-18T05:09:58;100273.38;;;23.71;53.51
30302;BME280;17111;52.130;5.028;2023-09-18T05:12:24;100277.94;;;23.71;53.51
30302;BME280;17111;52.130;5.028;2023-09-18T05:14:51;100284.19;;;23.71;53.58
30302;BME280;17111;52.130;5.028;2023-09-18T05:17:18;100287.72;;;23.72;53.59
30302;BME280;17111;52.130;5.028;2023-09-18T05:19:44;100296.88;;;23.71;53.34
30302;BME280;17111;52.130;5.028;2023-09-18T05:22:11;100299.59;;;23.71;53.58
30302;BME280;17111;52.130;5.028;2023-09-18T05:24:39;100303.97;;;23.72;53.78
30302;BME280;17111;52.130;5.028;2023-09-18T05:27:06;100306.66;;;23.72;53.16
30302;BME280;17111;52.130;5.028;2023-09-18T05:29:34;100300.44;;;23.71;53.24
30302;BME280;17111;52.130;5.028;2023-09-18T05:32:04;100310.41;;;23.71;53.80
30302;BME280;17111;52.130;5.028;2023-09-18T05:34:31;100322.06;;;23.71;53.27
30302;BME280;17111;52.130;5.028;2023-09-18T05:36:58;100317.72;;;23.70;53.69
30302;BME280;17111;52.130;5.028;2023-09-18T05:39:25;100318.53;;;23.71;53.41
30302;BME280;17111;52.130;5.028;2023-09-18T05:41:51;100323.13;;;23.70;53.41
30302;BME280;17111;52.130;5.028;2023-09-18T05:44:18;100329.34;;;23.71;53.01
30302;BME280;17111;52.130;5.028;2023-09-18T05:46:45;100328.53;;;23.70;52.95
30302;BME280;17111;52.130;5.028;2023-09-18T05:49:11;100329.34;;;23.71;53.47
30302;BME280;17111;52.130;5.028;2023-09-18T05:51:39;100320.19;;;23.72;53.18
30302;BME280;17111;52.130;5.028;2023-09-18T05:54:05;100322.06;;;23.71;52.99
30302;BME280;17111;52.130;5.028;2023-09-18T05:56:33;100322.91;;;23.72;53.03
30302;BME280;17111;52.130;5.028;2023-09-18T05:59:00;100312.06;;;23.72;53.52
30302;BME280;17111;52.130;5.028;2023-09-18T06:01:26;100320.19;;;23.72;52.87
30302;BME280;17111;52.130;5.028;2023-09-18T06:03:54;100319.38;;;23.71;53.41
30302;BME280;17111;52.130;5.028;2023-09-18T06:06:21;100321.06;;;23.72;53.34
30302;BME280;17111;52.130;5.028;2023-09-18T06:08:47;100325.59;;;23.72;53.30
30302;BME280;17111;52.130;5.028;2023-09-18T06:11:14;100339.13;;;23.72;53.57
30302;BME280;17111;52.130;5.028;2023-09-18T06:13:41;100323.75;;;23.72;53.37
30302;BME280;17111;52.130;5.028;2023-09-18T06:16:07;100317.50;;;23.72;52.93
30302;BME280;17111;52.130;5.028;2023-09-18T06:18:35;100338.13;;;23.73;53.21
30302;BME280;17111;52.130;5.028;2023-09-18T06:21:04;100338.13;;;23.73;52.86
30302;BME280;17111;52.130;5.028;2023-09-18T06:23:31;100332.72;;;23.73;53.29
30302;BME280;17111;52.130;5.028;2023-09-18T06:25:59;100331.66;;;23.74;53.39
30302;BME280;17111;52.130;5.028;2023-09-18T06:28:26;100329.19;;;23.72;53.02
30302;BME280;17111;52.130;5.028;2023-09-18T06:30:52;100327.31;;;23.73;53.12
30302;BME280;17111;52.130;5.028;2023-09-18T06:33:21;100325.44;;;23.73;53.27
30302;BME280;17111;52.130;5.028;2023-09-18T06:35:47;100325.44;;;23.73;53.43
30302;BME280;17111;52.130;5.028;2023-09-18T06:38:15;100314.78;;;23.72;53.08
30302;BME280;17111;52.130;5.028;2023-09-18T06:40:42;100321.88;;;23.73;53.40
30302;BME280;17111;52.130;5.028;2023-09-18T06:43:08;100324.38;;;23.74;52.99
30302;BME280;17111;52.130;5.028;2023-09-18T06:45:35;100309.19;;;23.73;53.01
30302;BME280;17111;52.130;5.028;2023-09-18T06:48:04;100309.19;;;23.73;52.86
30302;BME280;17111;52.130;5.028;2023-09-18T06:50:31;100309.19;;;23.73;53.04
30302;BME280;17111;52.130;5.028;2023-09-18T06:52:58;100311.69;;;23.75;53.35
30302;BME280;17111;52.130;5.028;2023-09-18T06:55:25;100320.84;;;23.74;53.07
30302;BME280;17111;52.130;5.028;2023-09-18T06:57:51;100327.09;;;23.74;52.91
30302;BME280;17111;52.130;5.028;2023-09-18T07:00:18;100322.50;;;23.75;53.39
30302;BME280;17111;52.130;5.028;2023-09-18T07:02:48;100329.78;;;23.74;52.92
30302;BME280;17111;52.130;5.028;2023-09-18T07:05:16;100329.78;;;23.74;53.45
30302;BME280;17111;52.130;5.028;2023-09-18T07:07:43;100327.09;;;23.74;53.17
30302;BME280;17111;52.130;5.028;2023-09-18T07:10:10;100326.03;;;23.75;53.54
30302;BME280;17111;52.130;5.028;2023-09-18T07:12:37;100311.69;;;23.75;53.14
30302;BME280;17111;52.130;5.028;2023-09-18T07:15:04;100315.22;;;23.75;53.56
30302;BME280;17111;52.130;5.028;2023-09-18T07:17:32;100328.75;;;23.75;53.56
30302;BME280;17111;52.130;5.028;2023-09-18T07:19:59;100317.75;;;23.77;53.17
30302;BME280;17111;52.130;5.028;2023-09-18T07:22:26;100318.75;;;23.76;53.03
30302;BME280;17111;52.130;5.028;2023-09-18T07:24:56;100315.03;;;23.77;53.38
30302;BME280;17111;52.130;5.028;2023-09-18T07:27:22;100323.16;;;23.77;53.13
30302;BME280;17111;52.130;5.028;2023-09-18T07:29:49;100321.28;;;23.77;53.38
30302;BME280;17111;52.130;5.028;2023-09-18T07:32:16;100313.97;;;23.78;53.70
30302;BME280;17111;52.130;5.028;2023-09-18T07:35:03;100302.13;;;23.79;53.61
30302;BME280;17111;52.130;5.028;2023-09-18T07:37:31;100299.41;;;23.79;53.76
30302;BME280;17111;52.130;5.028;2023-09-18T07:39:58;100300.25;;;23.79;53.93
30302;BME280;17111;52.130;5.028;2023-09-18T07:42:25;100310.88;;;23.81;53.49
30302;BME280;17111;52.130;5.028;2023-09-18T07:44:53;100319.00;;;23.81;53.97
30302;BME280;17111;52.130;5.028;2023-09-18T07:47:22;100326.06;;;23.82;53.46
30302;BME280;17111;52.130;5.028;2023-09-18T07:49:49;100326.69;;;23.84;53.34
30302;BME280;17111;52.130;5.028;2023-09-18T07:52:17;100326.06;;;23.82;53.82
30302;BME280;17111;52.130;5.028;2023-09-18T07:54:44;100325.84;;;23.83;53.88
30302;BME280;17111;52.130;5.028;2023-09-18T07:57:10;100336.50;;;23.85;53.83
30302;BME280;17111;52.130;5.028;2023-09-18T07:59:37;100343.56;;;23.86;53.84
30302;BME280;17111;52.130;5.028;2023-09-18T08:02:06;100340.84;;;23.86;53.66
30302;BME280;17111;52.130;5.028;2023-09-18T08:04:32;100345.22;;;23.87;54.19
30302;BME280;17111;52.130;5.028;2023-09-18T08:06:59;100358.75;;;23.87;54.09
30302;BME280;17111;52.130;5.028;2023-09-18T08:09:26;100359.59;;;23.87;53.80
30302;BME280;17111;52.130;5.028;2023-09-18T08:11:56;100359.41;;;23.89;53.68
30302;BME280;17111;52.130;5.028;2023-09-18T08:14:22;100359.41;;;23.89;53.84
30302;BME280;17111;52.130;5.028;2023-09-18T08:16:56;100358.56;;;23.88;53.98
30302;BME280;17111;52.130;5.028;2023-09-18T08:19:24;100362.13;;;23.89;54.36
30302;BME280;17111;52.130;5.028;2023-09-18T08:21:53;100355.88;;;23.88;54.34
30302;BME280;17111;52.130;5.028;2023-09-18T08:24:21;100358.34;;;23.90;54.30
30302;BME280;17111;52.130;5.028;2023-09-18T08:26:47;100360.22;;;23.89;54.21
30302;BME280;17111;52.130;5.028;2023-09-18T08:29:14;100357.31;;;23.91;54.48
30302;BME280;17111;52.130;5.028;2023-09-18T08:31:42;100365.44;;;23.91;54.63
30302;BME280;17111;52.130;5.028;2023-09-18T08:34:09;100369.84;;;23.92;54.50
30302;BME280;17111;52.130;5.028;2023-09-18T08:36:36;100367.94;;;23.93;54.42
30302;BME280;17111;52.130;5.028;2023-09-18T08:39:02;100376.69;;;23.95;54.49
30302;BME280;17111;52.130;5.028;2023-09-18T08:41:33;100368.56;;;23.95;54.36
30302;BME280;17111;52.130;5.028;2023-09-18T08:44:03;100374.81;;;23.95;55.22
30302;BME280;17111;52.130;5.028;2023-09-18T08:46:30;100389.00;;;23.97;54.37
30302;BME280;17111;52.130;5.028;2023-09-18T08:49:00;100378.78;;;23.99;54.71
30302;BME280;17111;52.130;5.028;2023-09-18T08:51:27;100379.44;;;24.01;54.84
30302;BME280;17111;52.130;5.028;2023-09-18T08:53:55;100383.78;;;24.02;54.47
30302;BME280;17111;52.130;5.028;2023-09-18T08:56:22;100390.88;;;24.03;54.78
30302;BME280;17111;52.130;5.028;2023-09-18T08:58:50;100389.63;;;24.06;54.98
30302;BME280;17111;52.130;5.028;2023-09-18T09:01:17;100382.13;;;24.08;54.70
30302;BME280;17111;52.130;5.028;2023-09-18T09:03:44;100398.19;;;24.09;54.77
30302;BME280;17111;52.130;5.028;2023-09-18T09:06:13;100396.09;;;24.11;54.58
30302;BME280;17111;52.130;5.028;2023-09-18T09:08:40;100419.44;;;24.12;54.37
30302;BME280;17111;52.130;5.028;2023-09-18T09:11:07;100411.09;;;24.14;54.25
30302;BME280;17111;52.130;5.028;2023-09-18T09:13:34;100429.00;;;24.15;54.03
30302;BME280;17111;52.130;5.028;2023-09-18T09:16:12;100412.78;;;24.15;54.22
30302;BME280;17111;52.130;5.028;2023-09-18T09:18:50;100418.00;;;24.17;54.49
30302;BME280;17111;52.130;5.028;2023-09-18T09:21:18;100421.31;;;24.19;54.21
30302;BME280;17111;52.130;5.028;2023-09-18T09:23:50;100415.06;;;24.18;54.10
30302;BME280;17111;52.130;5.028;2023-09-18T09:26:23;100425.91;;;24.18;53.51
30302;BME280;17111;52.130;5.028;2023-09-18T09:28:50;100423.19;;;24.18;53.99
30302;BME280;17111;52.130;5.028;2023-09-18T09:31:28;100435.91;;;24.18;54.05
30302;BME280;17111;52.130;5.028;2023-09-18T09:33:55;100434.88;;;24.19;54.28
30302;BME280;17111;52.130;5.028;2023-09-18T09:36:23;100443.19;;;24.17;53.57
30302;BME280;17111;52.130;5.028;2023-09-18T09:38:57;100442.38;;;24.17;53.84
30302;BME280;17111;52.130;5.028;2023-09-18T09:41:27;100445.09;;;24.17;54.06
30302;BME280;17111;52.130;5.028;2023-09-18T09:43:58;100450.69;;;24.15;54.33
30302;BME280;17111;52.130;5.028;2023-09-18T09:46:24;100456.31;;;24.13;54.39
30302;BME280;17111;52.130;5.028;2023-09-18T09:49:12;100457.34;;;24.12;54.07
30302;BME280;17111;52.130;5.028;2023-09-18T09:51:39;100459.03;;;24.13;54.00
30302;BME280;17111;52.130;5.028;2023-09-18T09:54:08;100455.47;;;24.13;53.67
30302;BME280;17111;52.130;5.028;2023-09-18T09:56:43;100460.06;;;24.12;53.90
30302;BME280;17111;52.130;5.028;2023-09-18T09:59:11;100460.91;;;24.13;53.94
30302;BME280;17111;52.130;5.028;2023-09-18T10:01:39;100451.94;;;24.12;54.27
30302;BME280;17111;52.130;5.028;2023-09-18T10:04:17;100457.53;;;24.11;54.26
30302;BME280;17111;52.130;5.028;2023-09-18T10:06:48;100454.66;;;24.12;53.91
30302;BME280;17111;52.130;5.028;2023-09-18T10:09:19;100460.06;;;24.12;53.86
30302;BME280;17111;52.130;5.028;2023-09-18T10:11:49;100452.78;;;24.13;54.00
30302;BME280;17111;52.130;5.028;2023-09-18T10:14:22;100459.03;;;24.13;54.16
30302;BME280;17111;52.130;5.028;2023-09-18T10:16:54;100463.59;;;24.13;53.70
30302;BME280;17111;52.130;5.028;2023-09-18T10:19:40;100456.50;;;24.12;53.46
30302;BME280;17111;52.130;5.028;2023-09-18T10:22:19;100457.16;;;24.14;53.65
30302;BME280;17111;52.130;5.028;2023-09-18T10:24:50;100464.44;;;24.13;54.29
30302;BME280;17111;52.130;5.028;2023-09-18T10:27:21;100464.22;;;24.15;54.34
30302;BME280;17111;52.130;5.028;2023-09-18T10:29:51;100457.56;;;24.18;53.99
30302;BME280;17111;52.130;5.028;2023-09-18T10:32:18;100460.91;;;24.20;53.57
30302;BME280;17111;52.130;5.028;2023-09-18T10:34:47;100456.97;;;24.22;53.48
30302;BME280;17111;52.130;5.028;2023-09-18T10:37:15;100454.03;;;24.24;53.79
30302;BME280;17111;52.130;5.028;2023-09-18T10:39:42;100462.81;;;24.26;53.72
30302;BME280;17111;52.130;5.028;2023-09-18T10:42:12;100457.00;;;24.29;53.74
30302;BME280;17111;52.130;5.028;2023-09-18T10:44:40;100457.59;;;24.31;53.74
30302;BME280;17111;52.130;5.028;2023-09-18T10:47:09;100455.31;;;24.34;53.72
30302;BME280;17111;52.130;5.028;2023-09-18T10:49:36;100446.59;;;24.39;53.03
30302;BME280;17111;52.130;5.028;2023-09-18T10:52:03;100445.97;;;24.44;53.51
30302;BME280;17111;52.130;5.028;2023-09-18T10:54:31;100442.03;;;24.46;53.28
30302;BME280;17111;52.130;5.028;2023-09-18T10:56:58;100451.66;;;24.49;52.99
30302;BME280;17111;52.130;5.028;2023-09-18T10:59:27;100450.59;;;24.50;53.38
30302;BME280;17111;52.130;5.028;2023-09-18T11:01:54;100457.50;;;24.52;52.78
30302;BME280;17111;52.130;5.028;2023-09-18T11:04:21;100456.44;;;24.53;53.04
30302;BME280;17111;52.130;5.028;2023-09-18T11:09:30;100461.03;;;24.53;53.13
30302;BME280;17111;52.130;5.028;2023-09-18T11:14:57;100456.44;;;24.53;52.53
30302;BME280;17111;52.130;5.028;2023-09-18T11:17:35;100449.75;;;24.56;52.83
30302;BME280;17111;52.130;5.028;2023-09-18T11:20:08;100443.31;;;24.57;52.51
30302;BME280;17111;52.130;5.028;2023-09-18T11:22:36;100447.69;;;24.58;52.96
30302;BME280;17111;52.130;5.028;2023-09-18T11:27:57;100436.22;;;24.62;52.88
30302;BME280;17111;52.130;5.028;2023-09-18T11:30:24;100446.00;;;24.63;52.50
30302;BME280;17111;52.130;5.028;2023-09-18T11:32:51;100441.22;;;24.66;52.44
30302;BME280;17111;52.130;5.028;2023-09-18T11:35:18;100440.19;;;24.67;52.37
30302;BME280;17111;52.130;5.028;2023-09-18T11:37:45;100437.25;;;24.68;52.23
30302;BME280;17111;52.130;5.028;2023-09-18T11:40:33;100438.13;;;24.69;52.91
30302;BME280;17111;52.130;5.028;2023-09-18T11:45:54;100437.69;;;24.72;52.38
30302;BME280;17111;52.130;5.028;2023-09-18T11:48:23;100437.69;;;24.72;52.51
30302;BME280;17111;52.130;5.028;2023-09-18T11:50:52;100440.38;;;24.72;52.16
30302;BME280;17111;52.130;5.028;2023-09-18T11:53:20;100436.44;;;24.74;52.19
30302;BME280;17111;52.130;5.028;2023-09-18T11:55:47;100427.91;;;24.77;52.43
30302;BME280;17111;52.130;5.028;2023-09-18T11:58:14;100431.44;;;24.78;52.30
30302;BME280;17111;52.130;5.028;2023-09-18T12:00:41;100424.97;;;24.79;51.82
30302;BME280;17111;52.130;5.028;2023-09-18T12:05:54;100425.81;;;24.86;51.82
30302;BME280;17111;52.130;5.028;2023-09-18T12:08:22;100418.94;;;24.90;52.21
30302;BME280;17111;52.130;5.028;2023-09-18T12:10:50;100412.88;;;24.95;52.09
30302;BME280;17111;52.130;5.028;2023-09-18T12:13:17;100408.91;;;24.97;51.60
30302;BME280;17111;52.130;5.028;2023-09-18T12:15:44;100412.88;;;25.01;52.03
30302;BME280;17111;52.130;5.028;2023-09-18T12:18:14;100422.44;;;25.04;51.93
30302;BME280;17111;52.130;5.028;2023-09-18T12:20:45;100412.69;;;25.09;51.46
30302;BME280;17111;52.130;5.028;2023-09-18T12:23:13;100408.09;;;25.17;51.65
30302;BME280;17111;52.130;5.028;2023-09-18T12:25:39;100417.25;;;25.22;51.19
30302;BME280;17111;52.130;5.028;2023-09-18T12:28:07;100415.78;;;25.26;51.33
30302;BME280;17111;52.130;5.028;2023-09-18T12:30:34;100418.91;;;25.23;51.33
30302;BME280;17111;52.130;5.028;2023-09-18T12:33:01;100419.13;;;25.22;51.38
30302;BME280;17111;52.130;5.028;2023-09-18T12:35:28;100429.34;;;25.20;51.13
30302;BME280;17111;52.130;5.028;2023-09-18T12:37:58;100412.88;;;25.21;51.04
30302;BME280;17111;52.130;5.028;2023-09-18T12:40:30;100416.41;;;25.22;51.29
30302;BME280;17111;52.130;5.028;2023-09-18T12:42:59;100409.34;;;25.21;51.33
30302;BME280;17111;52.130;5.028;2023-09-18T12:45:26;100406.81;;;25.19;51.11
30302;BME280;17111;52.130;5.028;2023-09-18T12:47:55;100399.72;;;25.18;51.16
30302;BME280;17111;52.130;5.028;2023-09-18T12:50:23;100404.31;;;25.18;51.42
30302;BME280;17111;52.130;5.028;2023-09-18T12:52:50;100401.81;;;25.16;51.32
30302;BME280;17111;52.130;5.028;2023-09-18T12:55:26;100391.41;;;25.13;51.25
30302;BME280;17111;52.130;5.028;2023-09-18T12:57:54;100391.19;;;25.15;51.32
30302;BME280;17111;52.130;5.028;2023-09-18T13:00:21;100402.03;;;25.15;51.34
30302;BME280;17111;52.130;5.028;2023-09-18T13:02:53;100391.19;;;25.15;51.34
30302;BME280;17111;52.130;5.028;2023-09-18T13:05:24;100384.94;;;25.14;51.17
30302;BME280;17111;52.130;5.028;2023-09-18T13:07:54;100387.63;;;25.14;51.00
30302;BME280;17111;52.130;5.028;2023-09-18T13:10:21;100374.28;;;25.13;51.38
30302;BME280;17111;52.130;5.028;2023-09-18T13:12:53;100383.03;;;25.15;51.38
30302;BME280;17111;52.130;5.028;2023-09-18T13:15:26;100370.31;;;25.15;51.65